sensor_id;sensor_type;location;lat;lon;timestamp;temperature;humidity
5759;DHT22;2904;48.788;9.196;2022-11-20T00:01:53;5.50;99.90
5759;DHT22;2904;48.788;9.196;2022-11-20T00:16:32;5.50;99.90
5759;DHT22;2904;48.788;9.196;2022-11-20T00:18:58;5.40;99.90
5759;DHT22;2904;48.788;9.196;2022-11-20T00:21:29;5.50;99.90
5759;DHT22;2904;48.788;9.196;2022-11-20T00:26:23;5.60;99.90
5759;DHT22;2904;48.788;9.196;2022-11-20T00:31:18;5.60;99.90
5759;DHT22;2904;48.788;9.196;2022-11-20T00:56:26;5.90;99.90
5759;DHT22;2904;48.788;9.196;2022-11-20T00:58:51;5.90;99.90
5759;DHT22;2904;48.788;9.196;2022-11-20T01:01:25;6.00;99.90
5759;DHT22;2904;48.788;9.196;2022-11-20T01:03:55;6.00;99.90
5759;DHT22;2904;48.788;9.196;2022-11-20T01:08:56;6.10;99.90
5759;DHT22;2904;48.788;9.196;2022-11-20T01:11:27;6.10;99.90
5759;DHT22;2904;48.788;9.196;2022-11-20T01:16:25;6.30;99.90
5759;DHT22;2904;48.788;9.196;2022-11-20T01:18:54;6.40;99.90
5759;DHT22;2904;48.788;9.196;2022-11-20T01:31:21;6.60;99.90
5759;DHT22;2904;48.788;9.196;2022-11-20T01:33:49;6.60;99.90
5759;DHT22;2904;48.788;9.196;2022-11-20T01:36:17;6.90;99.90
5759;DHT22;2904;48.788;9.196;2022-11-20T01:41:11;6.60;99.90
5759;DHT22;2904;48.788;9.196;2022-11-20T01:51:02;6.50;99.90
5759;DHT22;2904;48.788;9.196;2022-11-20T01:58:30;6.50;99.90
5759;DHT22;2904;48.788;9.196;2022-11-20T02:00:57;6.40;99.90
5759;DHT22;2904;48.788;9.196;2022-11-20T02:03:23;6.50;99.90
5759;DHT22;2904;48.788;9.196;2022-11-20T02:06:10;6.50;99.90
5759;DHT22;2904;48.788;9.196;2022-11-20T02:08:38;6.30;99.90
5759;DHT22;2904;48.788;9.196;2022-11-20T02:11:04;6.50;99.90
5759;DHT22;2904;48.788;9.196;2022-11-20T02:18:48;6.50;99.90
5759;DHT22;2904;48.788;9.196;2022-11-20T02:21:34;6.50;99.90
5759;DHT22;2904;48.788;9.196;2022-11-20T02:31:50;7.00;99.90
5759;DHT22;2904;48.788;9.196;2022-11-20T02:36:44;6.50;99.90
5759;DHT22;2904;48.788;9.196;2022-11-20T02:44:04;6.50;99.90
5759;DHT22;2904;48.788;9.196;2022-11-20T02:46:31;6.40;99.90
5759;DHT22;2904;48.788;9.196;2022-11-20T02:48:57;6.50;99.90
5759;DHT22;2904;48.788;9.196;2022-11-20T02:51:23;6.60;99.90
5759;DHT22;2904;48.788;9.196;2022-11-20T02:53:49;6.50;99.90
5759;DHT22;2904;48.788;9.196;2022-11-20T02:56:15;6.60;99.90
5759;DHT22;2904;48.788;9.196;2022-11-20T02:58:41;6.60;99.90
5759;DHT22;2904;48.788;9.196;2022-11-20T03:01:06;6.80;99.90
5759;DHT22;2904;48.788;9.196;2022-11-20T03:05:59;6.70;99.90
5759;DHT22;2904;48.788;9.196;2022-11-20T03:08:25;6.60;99.90
5759;DHT22;2904;48.788;9.196;2022-11-20T03:10:51;6.50;99.90
5759;DHT22;2904;48.788;9.196;2022-11-20T03:13:17;6.60;99.90
5759;DHT22;2904;48.788;9.196;2022-11-20T03:18:09;6.60;99.90
5759;DHT22;2904;48.788;9.196;2022-11-20T03:23:01;6.60;99.90
5759;DHT22;2904;48.788;9.196;2022-11-20T03:25:26;6.60;99.90
5759;DHT22;2904;48.788;9.196;2022-11-20T03:27:52;6.50;99.90
5759;DHT22;2904;48.788;9.196;2022-11-20T03:30:18;6.50;99.90
5759;DHT22;2904;48.788;9.196;2022-11-20T03:32:44;6.50;99.90
5759;DHT22;2904;48.788;9.196;2022-11-20T03:35:10;6.40;99.90
5759;DHT22;2904;48.788;9.196;2022-11-20T03:37:35;6.30;99.90
5759;DHT22;2904;48.788;9.196;2022-11-20T03:40:01;6.40;99.90
5759;DHT22;2904;48.788;9.196;2022-11-20T03:42:26;6.30;99.90
5759;DHT22;2904;48.788;9.196;2022-11-20T03:47:36;6.40;99.90
5759;DHT22;2904;48.788;9.196;2022-11-20T03:50:02;6.20;99.90
5759;DHT22;2904;48.788;9.196;2022-11-20T03:54:54;6.30;99.90
5759;DHT22;2904;48.788;9.196;2022-11-20T03:57:19;6.50;99.90
5759;DHT22;2904;48.788;9.196;2022-11-20T03:59:45;6.40;99.90
5759;DHT22;2904;48.788;9.196;2022-11-20T04:02:11;6.30;99.90
5759;DHT22;2904;48.788;9.196;2022-11-20T04:04:36;6.00;99.90
5759;DHT22;2904;48.788;9.196;2022-11-20T04:07:02;6.20;99.90
5759;DHT22;2904;48.788;9.196;2022-11-20T04:09:27;6.20;99.90
5759;DHT22;2904;48.788;9.196;2022-11-20T04:11:53;6.10;99.90
5759;DHT22;2904;48.788;9.196;2022-11-20T04:16:45;6.30;99.90
5759;DHT22;2904;48.788;9.196;2022-11-20T04:19:13;6.30;99.90
5759;DHT22;2904;48.788;9.196;2022-11-20T04:21:39;6.20;99.90
5759;DHT22;2904;48.788;9.196;2022-11-20T04:24:05;6.20;99.90
5759;DHT22;2904;48.788;9.196;2022-11-20T04:26:31;6.10;99.90
5759;DHT22;2904;48.788;9.196;2022-11-20T04:28:57;6.30;99.90
5759;DHT22;2904;48.788;9.196;2022-11-20T04:31:27;6.20;99.90
5759;DHT22;2904;48.788;9.196;2022-11-20T04:36:24;6.30;99.90
5759;DHT22;2904;48.788;9.196;2022-11-20T04:38:55;6.30;99.90
5759;DHT22;2904;48.788;9.196;2022-11-20T04:41:23;6.10;99.90
5759;DHT22;2904;48.788;9.196;2022-11-20T04:43:50;6.20;99.90
5759;DHT22;2904;48.788;9.196;2022-11-20T04:46:18;6.30;99.90
5759;DHT22;2904;48.788;9.196;2022-11-20T04:48:44;6.20;99.90
5759;DHT22;2904;48.788;9.196;2022-11-20T04:51:10;6.30;99.90
5759;DHT22;2904;48.788;9.196;2022-11-20T04:56:05;6.30;99.90
5759;DHT22;2904;48.788;9.196;2022-11-20T04:58:31;6.30;99.90
5759;DHT22;2904;48.788;9.196;2022-11-20T05:01:06;6.20;99.90
5759;DHT22;2904;48.788;9.196;2022-11-20T05:06:02;6.20;99.90
5759;DHT22;2904;48.788;9.196;2022-11-20T05:08:29;6.30;99.90
5759;DHT22;2904;48.788;9.196;2022-11-20T05:18:17;6.40;99.90
5759;DHT22;2904;48.788;9.196;2022-11-20T05:20:43;6.30;99.90
5759;DHT22;2904;48.788;9.196;2022-11-20T05:23:08;6.50;99.90
5759;DHT22;2904;48.788;9.196;2022-11-20T05:25:34;6.40;99.90
5759;DHT22;2904;48.788;9.196;2022-11-20T05:35:17;6.40;99.90
5759;DHT22;2904;48.788;9.196;2022-11-20T05:37:43;6.30;99.90
5759;DHT22;2904;48.788;9.196;2022-11-20T05:40:11;6.50;99.90
5759;DHT22;2904;48.788;9.196;2022-11-20T05:45:04;6.50;99.90
5759;DHT22;2904;48.788;9.196;2022-11-20T05:47:33;6.50;99.90
5759;DHT22;2904;48.788;9.196;2022-11-20T05:49:59;6.40;99.90
5759;DHT22;2904;48.788;9.196;2022-11-20T05:52:28;6.50;99.90
5759;DHT22;2904;48.788;9.196;2022-11-20T05:59:47;6.60;99.90
5759;DHT22;2904;48.788;9.196;2022-11-20T06:02:12;6.70;99.90
5759;DHT22;2904;48.788;9.196;2022-11-20T06:04:38;6.60;99.90
5759;DHT22;2904;48.788;9.196;2022-11-20T06:07:05;6.70;99.90
5759;DHT22;2904;48.788;9.196;2022-11-20T06:09:31;6.60;99.90
5759;DHT22;2904;48.788;9.196;2022-11-20T06:11:56;6.70;99.90
5759;DHT22;2904;48.788;9.196;2022-11-20T06:16:49;6.80;99.90
5759;DHT22;2904;48.788;9.196;2022-11-20T06:21:41;6.70;99.90
5759;DHT22;2904;48.788;9.196;2022-11-20T06:24:09;6.70;99.90
5759;DHT22;2904;48.788;9.196;2022-11-20T06:26:35;6.80;99.90
5759;DHT22;2904;48.788;9.196;2022-11-20T06:31:27;6.60;99.90
5759;DHT22;2904;48.788;9.196;2022-11-20T06:33:53;6.80;99.90
5759;DHT22;2904;48.788;9.196;2022-11-20T06:36:20;6.90;99.90
5759;DHT22;2904;48.788;9.196;2022-11-20T06:38:46;6.80;99.90
5759;DHT22;2904;48.788;9.196;2022-11-20T06:41:14;6.80;99.90
5759;DHT22;2904;48.788;9.196;2022-11-20T06:43:41;6.30;99.90
5759;DHT22;2904;48.788;9.196;2022-11-20T06:46:08;6.50;99.90
5759;DHT22;2904;48.788;9.196;2022-11-20T06:48:34;6.90;99.90
5759;DHT22;2904;48.788;9.196;2022-11-20T06:51:03;7.40;99.90
5759;DHT22;2904;48.788;9.196;2022-11-20T06:53:32;6.90;99.90
5759;DHT22;2904;48.788;9.196;2022-11-20T06:58:27;6.80;99.90
5759;DHT22;2904;48.788;9.196;2022-11-20T07:01:06;6.80;99.90
5759;DHT22;2904;48.788;9.196;2022-11-20T07:03:32;6.80;99.90
5759;DHT22;2904;48.788;9.196;2022-11-20T07:06:00;6.80;99.90
5759;DHT22;2904;48.788;9.196;2022-11-20T07:08:26;6.80;99.90
5759;DHT22;2904;48.788;9.196;2022-11-20T07:10:52;6.80;99.90
5759;DHT22;2904;48.788;9.196;2022-11-20T07:13:17;6.80;99.90
5759;DHT22;2904;48.788;9.196;2022-11-20T07:15:43;6.80;99.90
5759;DHT22;2904;48.788;9.196;2022-11-20T07:18:09;6.80;99.90
5759;DHT22;2904;48.788;9.196;2022-11-20T07:20:34;6.80;99.90
5759;DHT22;2904;48.788;9.196;2022-11-20T07:23:00;6.70;99.90
5759;DHT22;2904;48.788;9.196;2022-11-20T07:25:27;6.70;99.90
5759;DHT22;2904;48.788;9.196;2022-11-20T07:27:57;6.90;99.90
5759;DHT22;2904;48.788;9.196;2022-11-20T07:30:23;6.60;99.90
5759;DHT22;2904;48.788;9.196;2022-11-20T07:32:52;6.80;99.90
5759;DHT22;2904;48.788;9.196;2022-11-20T07:35:19;6.80;99.90
5759;DHT22;2904;48.788;9.196;2022-11-20T07:37:45;6.80;99.90
5759;DHT22;2904;48.788;9.196;2022-11-20T07:40:18;6.90;99.90
5759;DHT22;2904;48.788;9.196;2022-11-20T07:42:51;6.80;99.90
5759;DHT22;2904;48.788;9.196;2022-11-20T07:45:18;6.90;99.90
5759;DHT22;2904;48.788;9.196;2022-11-20T07:47:44;6.90;99.90
5759;DHT22;2904;48.788;9.196;2022-11-20T07:50:10;7.00;99.90
5759;DHT22;2904;48.788;9.196;2022-11-20T07:52:36;7.10;99.90
5759;DHT22;2904;48.788;9.196;2022-11-20T07:55:02;7.10;99.90
5759;DHT22;2904;48.788;9.196;2022-11-20T07:57:28;7.20;99.90
5759;DHT22;2904;48.788;9.196;2022-11-20T07:59:53;7.20;99.90
5759;DHT22;2904;48.788;9.196;2022-11-20T08:02:19;7.20;99.90
5759;DHT22;2904;48.788;9.196;2022-11-20T08:04:45;7.20;99.90
5759;DHT22;2904;48.788;9.196;2022-11-20T08:07:10;7.20;99.90
5759;DHT22;2904;48.788;9.196;2022-11-20T08:09:36;7.30;99.90
5759;DHT22;2904;48.788;9.196;2022-11-20T08:12:01;7.30;99.90
5759;DHT22;2904;48.788;9.196;2022-11-20T08:14:45;7.20;99.90
5759;DHT22;2904;48.788;9.196;2022-11-20T08:17:11;7.30;99.90
5759;DHT22;2904;48.788;9.196;2022-11-20T08:19:37;7.30;99.90
5759;DHT22;2904;48.788;9.196;2022-11-20T08:22:03;10.40;99.90
5759;DHT22;2904;48.788;9.196;2022-11-20T08:24:29;7.40;99.90
5759;DHT22;2904;48.788;9.196;2022-11-20T08:26:57;7.40;99.90
5759;DHT22;2904;48.788;9.196;2022-11-20T08:31:49;7.70;99.90
5759;DHT22;2904;48.788;9.196;2022-11-20T08:34:15;7.50;99.90
5759;DHT22;2904;48.788;9.196;2022-11-20T08:36:40;7.60;99.90
5759;DHT22;2904;48.788;9.196;2022-11-20T08:39:06;7.50;99.90
5759;DHT22;2904;48.788;9.196;2022-11-20T08:44:06;7.70;99.90
5759;DHT22;2904;48.788;9.196;2022-11-20T08:46:37;7.90;99.90
5759;DHT22;2904;48.788;9.196;2022-11-20T08:49:04;7.20;99.90
5759;DHT22;2904;48.788;9.196;2022-11-20T08:51:30;8.00;99.90
5759;DHT22;2904;48.788;9.196;2022-11-20T08:56:21;8.30;99.90
5759;DHT22;2904;48.788;9.196;2022-11-20T08:58:47;8.10;99.90
5759;DHT22;2904;48.788;9.196;2022-11-20T09:01:13;8.10;99.90
5759;DHT22;2904;48.788;9.196;2022-11-20T09:03:38;8.10;99.90
5759;DHT22;2904;48.788;9.196;2022-11-20T09:06:06;7.60;99.90
5759;DHT22;2904;48.788;9.196;2022-11-20T09:08:32;8.30;99.90
5759;DHT22;2904;48.788;9.196;2022-11-20T09:10:58;8.30;99.90
5759;DHT22;2904;48.788;9.196;2022-11-20T09:13:26;8.30;99.90
5759;DHT22;2904;48.788;9.196;2022-11-20T09:16:00;8.40;99.90
5759;DHT22;2904;48.788;9.196;2022-11-20T09:18:27;8.50;99.90
5759;DHT22;2904;48.788;9.196;2022-11-20T09:21:00;8.40;99.90
5759;DHT22;2904;48.788;9.196;2022-11-20T09:23:27;8.50;99.90
5759;DHT22;2904;48.788;9.196;2022-11-20T09:28:25;8.50;99.90
5759;DHT22;2904;48.788;9.196;2022-11-20T09:30:51;8.50;99.90
5759;DHT22;2904;48.788;9.196;2022-11-20T09:33:17;8.60;99.90
5759;DHT22;2904;48.788;9.196;2022-11-20T09:35:43;8.40;99.90
5759;DHT22;2904;48.788;9.196;2022-11-20T09:38:09;8.30;99.90
5759;DHT22;2904;48.788;9.196;2022-11-20T09:40:38;8.40;99.90
5759;DHT22;2904;48.788;9.196;2022-11-20T09:46:32;8.30;99.90
5759;DHT22;2904;48.788;9.196;2022-11-20T09:49:34;8.30;99.90
5759;DHT22;2904;48.788;9.196;2022-11-20T09:57:17;8.30;99.90
5759;DHT22;2904;48.788;9.196;2022-11-20T10:00:00;8.30;99.90
5759;DHT22;2904;48.788;9.196;2022-11-20T10:02:36;8.30;99.90
5759;DHT22;2904;48.788;9.196;2022-11-20T10:05:31;8.20;99.90
5759;DHT22;2904;48.788;9.196;2022-11-20T10:08:25;8.30;99.90
5759;DHT22;2904;48.788;9.196;2022-11-20T10:24:47;8.20;99.90
5759;DHT22;2904;48.788;9.196;2022-11-20T10:27:46;8.10;99.90
5759;DHT22;2904;48.788;9.196;2022-11-20T10:38:05;7.70;99.90
5759;DHT22;2904;48.788;9.196;2022-11-20T10:40:38;7.40;99.90
5759;DHT22;2904;48.788;9.196;2022-11-20T10:48:31;7.40;99.90
5759;DHT22;2904;48.788;9.196;2022-11-20T11:00:15;7.20;99.90
5759;DHT22;2904;48.788;9.196;2022-11-20T11:07:54;7.60;99.90
5759;DHT22;2904;48.788;9.196;2022-11-20T11:13:07;8.10;99.90
5759;DHT22;2904;48.788;9.196;2022-11-20T11:18:10;7.50;99.90
5759;DHT22;2904;48.788;9.196;2022-11-20T11:23:02;7.60;99.90
5759;DHT22;2904;48.788;9.196;2022-11-20T11:25:36;7.60;99.90
5759;DHT22;2904;48.788;9.196;2022-11-20T11:28:21;7.80;99.90
5759;DHT22;2904;48.788;9.196;2022-11-20T11:30:50;7.70;99.90
5759;DHT22;2904;48.788;9.196;2022-11-20T11:33:30;7.80;99.90
5759;DHT22;2904;48.788;9.196;2022-11-20T11:35:59;7.90;99.90
5759;DHT22;2904;48.788;9.196;2022-11-20T11:41:01;7.90;99.90
5759;DHT22;2904;48.788;9.196;2022-11-20T11:43:31;8.00;99.90
5759;DHT22;2904;48.788;9.196;2022-11-20T11:46:32;8.10;99.90
5759;DHT22;2904;48.788;9.196;2022-11-20T11:49:18;8.20;99.90
5759;DHT22;2904;48.788;9.196;2022-11-20T11:54:40;8.30;99.90
5759;DHT22;2904;48.788;9.196;2022-11-20T12:03:09;8.70;99.90
5759;DHT22;2904;48.788;9.196;2022-11-20T12:06:05;8.70;99.90
5759;DHT22;2904;48.788;9.196;2022-11-20T12:11:16;8.70;99.90
5759;DHT22;2904;48.788;9.196;2022-11-20T12:16:32;8.50;99.90
5759;DHT22;2904;48.788;9.196;2022-11-20T12:19:01;8.50;99.90
5759;DHT22;2904;48.788;9.196;2022-11-20T12:27:22;8.60;99.90
5759;DHT22;2904;48.788;9.196;2022-11-20T12:45:42;9.30;99.90
5759;DHT22;2904;48.788;9.196;2022-11-20T12:51:53;9.10;99.90
5759;DHT22;2904;48.788;9.196;2022-11-20T12:57:59;9.60;99.90
5759;DHT22;2904;48.788;9.196;2022-11-20T13:00:26;9.30;99.90
5759;DHT22;2904;48.788;9.196;2022-11-20T13:12:23;9.70;99.90
5759;DHT22;2904;48.788;9.196;2022-11-20T13:20:17;9.70;99.90
5759;DHT22;2904;48.788;9.196;2022-11-20T13:22:48;9.40;99.90
5759;DHT22;2904;48.788;9.196;2022-11-20T13:25:38;9.50;99.90
5759;DHT22;2904;48.788;9.196;2022-11-20T13:28:26;9.40;99.90
5759;DHT22;2904;48.788;9.196;2022-11-20T13:30:54;9.40;99.90
5759;DHT22;2904;48.788;9.196;2022-11-20T13:36:21;9.20;99.90
5759;DHT22;2904;48.788;9.196;2022-11-20T13:38:50;9.40;99.90
5759;DHT22;2904;48.788;9.196;2022-11-20T13:41:35;9.10;99.90
5759;DHT22;2904;48.788;9.196;2022-11-20T13:46:44;9.30;99.90
5759;DHT22;2904;48.788;9.196;2022-11-20T13:49:34;9.40;99.90
5759;DHT22;2904;48.788;9.196;2022-11-20T14:02:42;9.10;99.90
5759;DHT22;2904;48.788;9.196;2022-11-20T14:05:19;9.00;99.90
5759;DHT22;2904;48.788;9.196;2022-11-20T14:07:47;8.80;99.90
5759;DHT22;2904;48.788;9.196;2022-11-20T14:10:47;8.80;99.90
5759;DHT22;2904;48.788;9.196;2022-11-20T14:15:44;8.70;99.90
5759;DHT22;2904;48.788;9.196;2022-11-20T14:20:49;8.60;99.90
5759;DHT22;2904;48.788;9.196;2022-11-20T14:23:25;8.40;99.90
5759;DHT22;2904;48.788;9.196;2022-11-20T14:28:50;8.30;99.90
5759;DHT22;2904;48.788;9.196;2022-11-20T14:31:34;8.30;99.90
5759;DHT22;2904;48.788;9.196;2022-11-20T14:34:02;8.40;99.90
5759;DHT22;2904;48.788;9.196;2022-11-20T14:36:28;8.20;99.90
5759;DHT22;2904;48.788;9.196;2022-11-20T14:41:24;8.20;99.90
5759;DHT22;2904;48.788;9.196;2022-11-20T14:46:26;8.50;99.90
5759;DHT22;2904;48.788;9.196;2022-11-20T14:48:57;8.30;99.90
5759;DHT22;2904;48.788;9.196;2022-11-20T14:51:34;8.40;99.90
5759;DHT22;2904;48.788;9.196;2022-11-20T14:54:15;8.50;99.90
5759;DHT22;2904;48.788;9.196;2022-11-20T14:56:42;8.50;99.90
5759;DHT22;2904;48.788;9.196;2022-11-20T14:59:09;8.40;99.90
5759;DHT22;2904;48.788;9.196;2022-11-20T15:01:35;8.30;99.90
5759;DHT22;2904;48.788;9.196;2022-11-20T15:06:38;8.40;99.90
5759;DHT22;2904;48.788;9.196;2022-11-20T15:09:15;8.10;99.90
5759;DHT22;2904;48.788;9.196;2022-11-20T15:11:58;8.20;99.90
5759;DHT22;2904;48.788;9.196;2022-11-20T15:14:25;8.30;99.90
5759;DHT22;2904;48.788;9.196;2022-11-20T15:16:52;8.10;99.90
5759;DHT22;2904;48.788;9.196;2022-11-20T15:19:21;8.00;99.90
5759;DHT22;2904;48.788;9.196;2022-11-20T15:21:47;8.00;99.90
5759;DHT22;2904;48.788;9.196;2022-11-20T15:24:13;8.00;99.90
5759;DHT22;2904;48.788;9.196;2022-11-20T15:26:39;8.40;99.90
5759;DHT22;2904;48.788;9.196;2022-11-20T15:29:09;7.80;99.90
5759;DHT22;2904;48.788;9.196;2022-11-20T15:31:36;7.70;99.90
5759;DHT22;2904;48.788;9.196;2022-11-20T15:34:04;7.60;99.90
5759;DHT22;2904;48.788;9.196;2022-11-20T15:36:32;7.60;99.90
5759;DHT22;2904;48.788;9.196;2022-11-20T15:38:57;7.60;99.90
5759;DHT22;2904;48.788;9.196;2022-11-20T15:41:23;7.50;99.90
5759;DHT22;2904;48.788;9.196;2022-11-20T15:43:48;7.30;99.90
5759;DHT22;2904;48.788;9.196;2022-11-20T15:46:16;7.30;99.90
5759;DHT22;2904;48.788;9.196;2022-11-20T15:48:53;7.40;99.90
5759;DHT22;2904;48.788;9.196;2022-11-20T15:51:41;7.30;99.90
5759;DHT22;2904;48.788;9.196;2022-11-20T16:11:16;7.20;99.90
5759;DHT22;2904;48.788;9.196;2022-11-20T16:13:42;7.20;99.90
5759;DHT22;2904;48.788;9.196;2022-11-20T16:16:33;7.20;99.90
5759;DHT22;2904;48.788;9.196;2022-11-20T16:18:59;8.10;99.90
5759;DHT22;2904;48.788;9.196;2022-11-20T16:21:26;7.30;99.90
5759;DHT22;2904;48.788;9.196;2022-11-20T16:23:59;7.40;99.90
5759;DHT22;2904;48.788;9.196;2022-11-20T16:31:18;7.20;99.90
5759;DHT22;2904;48.788;9.196;2022-11-20T16:33:55;7.20;99.90
5759;DHT22;2904;48.788;9.196;2022-11-20T16:36:23;7.30;99.90
5759;DHT22;2904;48.788;9.196;2022-11-20T16:41:19;7.30;99.90
5759;DHT22;2904;48.788;9.196;2022-11-20T16:46:21;7.30;99.90
5759;DHT22;2904;48.788;9.196;2022-11-20T16:56:18;7.40;99.90
5759;DHT22;2904;48.788;9.196;2022-11-20T16:58:44;8.10;99.90
5759;DHT22;2904;48.788;9.196;2022-11-20T17:01:12;7.30;99.90
5759;DHT22;2904;48.788;9.196;2022-11-20T17:03:42;7.30;99.90
5759;DHT22;2904;48.788;9.196;2022-11-20T17:08:54;7.50;99.90
5759;DHT22;2904;48.788;9.196;2022-11-20T17:11:19;7.40;99.90
5759;DHT22;2904;48.788;9.196;2022-11-20T17:13:46;7.50;99.90
5759;DHT22;2904;48.788;9.196;2022-11-20T17:16:16;7.50;99.90
5759;DHT22;2904;48.788;9.196;2022-11-20T17:18:42;7.50;99.90
5759;DHT22;2904;48.788;9.196;2022-11-20T17:21:08;7.70;99.90
5759;DHT22;2904;48.788;9.196;2022-11-20T17:23:39;7.30;99.90
5759;DHT22;2904;48.788;9.196;2022-11-20T17:26:13;7.50;99.90
5759;DHT22;2904;48.788;9.196;2022-11-20T17:28:41;7.60;99.90
5759;DHT22;2904;48.788;9.196;2022-11-20T17:31:09;7.40;99.90
5759;DHT22;2904;48.788;9.196;2022-11-20T17:33:37;7.40;99.90
5759;DHT22;2904;48.788;9.196;2022-11-20T17:36:05;7.50;99.90
5759;DHT22;2904;48.788;9.196;2022-11-20T17:38:31;7.50;99.90
5759;DHT22;2904;48.788;9.196;2022-11-20T17:43:30;7.70;99.90
5759;DHT22;2904;48.788;9.196;2022-11-20T17:45:57;7.60;99.90
5759;DHT22;2904;48.788;9.196;2022-11-20T17:48:24;7.70;99.90
5759;DHT22;2904;48.788;9.196;2022-11-20T17:50:50;7.60;99.90
5759;DHT22;2904;48.788;9.196;2022-11-20T17:58:27;7.70;99.90
5759;DHT22;2904;48.788;9.196;2022-11-20T18:00:52;7.60;99.90
5759;DHT22;2904;48.788;9.196;2022-11-20T18:10:36;7.70;99.90
5759;DHT22;2904;48.788;9.196;2022-11-20T18:13:01;7.60;99.90
5759;DHT22;2904;48.788;9.196;2022-11-20T18:15:27;7.80;99.90
5759;DHT22;2904;48.788;9.196;2022-11-20T18:17:53;7.70;99.90
5759;DHT22;2904;48.788;9.196;2022-11-20T18:22:48;7.70;99.90
5759;DHT22;2904;48.788;9.196;2022-11-20T18:25:13;7.80;99.90
5759;DHT22;2904;48.788;9.196;2022-11-20T18:30:06;7.70;99.90
5759;DHT22;2904;48.788;9.196;2022-11-20T18:32:33;7.70;99.90
5759;DHT22;2904;48.788;9.196;2022-11-20T18:37:26;7.70;99.90
5759;DHT22;2904;48.788;9.196;2022-11-20T18:45:03;7.70;99.90
5759;DHT22;2904;48.788;9.196;2022-11-20T18:47:31;7.70;99.90
5759;DHT22;2904;48.788;9.196;2022-11-20T18:49:59;7.80;99.90
5759;DHT22;2904;48.788;9.196;2022-11-20T18:52:34;7.70;99.90
5759;DHT22;2904;48.788;9.196;2022-11-20T18:55:04;7.60;99.90
5759;DHT22;2904;48.788;9.196;2022-11-20T18:57:30;7.60;99.90
5759;DHT22;2904;48.788;9.196;2022-11-20T18:59:57;7.40;99.90
5759;DHT22;2904;48.788;9.196;2022-11-20T19:02:25;7.40;99.90
5759;DHT22;2904;48.788;9.196;2022-11-20T19:04:52;7.40;99.90
5759;DHT22;2904;48.788;9.196;2022-11-20T19:07:18;7.20;99.90
5759;DHT22;2904;48.788;9.196;2022-11-20T19:09:47;7.20;99.90
5759;DHT22;2904;48.788;9.196;2022-11-20T19:12:14;7.20;99.90
5759;DHT22;2904;48.788;9.196;2022-11-20T19:17:06;7.00;99.90
5759;DHT22;2904;48.788;9.196;2022-11-20T19:19:35;7.10;99.90
5759;DHT22;2904;48.788;9.196;2022-11-20T19:22:01;7.00;99.90
5759;DHT22;2904;48.788;9.196;2022-11-20T19:24:26;6.50;99.90
5759;DHT22;2904;48.788;9.196;2022-11-20T19:26:53;6.90;99.90
5759;DHT22;2904;48.788;9.196;2022-11-20T19:29:21;6.90;99.90
5759;DHT22;2904;48.788;9.196;2022-11-20T19:31:47;6.90;99.90
5759;DHT22;2904;48.788;9.196;2022-11-20T19:34:13;6.90;99.90
5759;DHT22;2904;48.788;9.196;2022-11-20T19:36:41;6.80;99.90
5759;DHT22;2904;48.788;9.196;2022-11-20T19:39:08;7.50;99.90
5759;DHT22;2904;48.788;9.196;2022-11-20T19:41:36;6.90;99.90
5759;DHT22;2904;48.788;9.196;2022-11-20T19:44:04;6.90;99.90
5759;DHT22;2904;48.788;9.196;2022-11-20T19:46:32;6.40;99.90
5759;DHT22;2904;48.788;9.196;2022-11-20T19:48:59;6.80;99.90
5759;DHT22;2904;48.788;9.196;2022-11-20T19:51:29;6.80;99.90
5759;DHT22;2904;48.788;9.196;2022-11-20T19:53:57;6.80;99.90
5759;DHT22;2904;48.788;9.196;2022-11-20T19:56:24;6.80;99.90
5759;DHT22;2904;48.788;9.196;2022-11-20T19:58:52;6.70;99.90
5759;DHT22;2904;48.788;9.196;2022-11-20T20:01:21;6.70;99.90
5759;DHT22;2904;48.788;9.196;2022-11-20T20:03:48;6.60;99.90
5759;DHT22;2904;48.788;9.196;2022-11-20T20:06:17;6.90;99.90
5759;DHT22;2904;48.788;9.196;2022-11-20T20:08:44;6.70;99.90
5759;DHT22;2904;48.788;9.196;2022-11-20T20:11:18;6.70;99.90
5759;DHT22;2904;48.788;9.196;2022-11-20T20:13:45;6.60;99.90
5759;DHT22;2904;48.788;9.196;2022-11-20T20:16:13;6.80;99.90
5759;DHT22;2904;48.788;9.196;2022-11-20T20:21:07;6.70;99.90
5759;DHT22;2904;48.788;9.196;2022-11-20T20:23:33;6.60;99.90
5759;DHT22;2904;48.788;9.196;2022-11-20T20:26:01;6.70;99.90
5759;DHT22;2904;48.788;9.196;2022-11-20T20:28:28;6.60;99.90
5759;DHT22;2904;48.788;9.196;2022-11-20T20:30:54;6.60;99.90
5759;DHT22;2904;48.788;9.196;2022-11-20T20:33:19;6.50;99.90
5759;DHT22;2904;48.788;9.196;2022-11-20T20:35:45;6.60;99.90
5759;DHT22;2904;48.788;9.196;2022-11-20T20:38:11;6.30;99.90
5759;DHT22;2904;48.788;9.196;2022-11-20T20:40:36;6.20;99.90
5759;DHT22;2904;48.788;9.196;2022-11-20T20:43:02;6.60;99.90
5759;DHT22;2904;48.788;9.196;2022-11-20T20:45:29;6.70;99.90
5759;DHT22;2904;48.788;9.196;2022-11-20T20:50:21;6.50;99.90
5759;DHT22;2904;48.788;9.196;2022-11-20T20:52:48;6.50;99.90
5759;DHT22;2904;48.788;9.196;2022-11-20T20:55:14;6.50;99.90
5759;DHT22;2904;48.788;9.196;2022-11-20T20:57:39;6.40;99.90
5759;DHT22;2904;48.788;9.196;2022-11-20T21:00:07;6.30;99.90
5759;DHT22;2904;48.788;9.196;2022-11-20T21:04:59;6.30;99.90
5759;DHT22;2904;48.788;9.196;2022-11-20T21:07:25;6.40;99.90
5759;DHT22;2904;48.788;9.196;2022-11-20T21:12:17;6.90;99.90
5759;DHT22;2904;48.788;9.196;2022-11-20T21:14:43;6.40;99.90
5759;DHT22;2904;48.788;9.196;2022-11-20T21:17:08;6.40;99.90
5759;DHT22;2904;48.788;9.196;2022-11-20T21:19:35;6.30;99.90
5759;DHT22;2904;48.788;9.196;2022-11-20T21:22:01;6.40;99.90
5759;DHT22;2904;48.788;9.196;2022-11-20T21:24:32;6.30;99.90
5759;DHT22;2904;48.788;9.196;2022-11-20T21:26:58;6.30;99.90
5759;DHT22;2904;48.788;9.196;2022-11-20T21:29:25;6.20;99.90
5759;DHT22;2904;48.788;9.196;2022-11-20T21:31:52;6.20;99.90
5759;DHT22;2904;48.788;9.196;2022-11-20T21:34:18;6.10;99.90
5759;DHT22;2904;48.788;9.196;2022-11-20T21:36:45;6.20;99.90
5759;DHT22;2904;48.788;9.196;2022-11-20T21:39:12;6.20;99.90
5759;DHT22;2904;48.788;9.196;2022-11-20T21:41:38;6.20;99.90
5759;DHT22;2904;48.788;9.196;2022-11-20T21:44:05;6.60;99.90
5759;DHT22;2904;48.788;9.196;2022-11-20T21:46:32;6.10;99.90
5759;DHT22;2904;48.788;9.196;2022-11-20T21:48:59;6.10;99.90
5759;DHT22;2904;48.788;9.196;2022-11-20T21:51:26;6.20;99.90
5759;DHT22;2904;48.788;9.196;2022-11-20T21:53:54;6.10;99.90
5759;DHT22;2904;48.788;9.196;2022-11-20T21:56:22;6.20;99.90
5759;DHT22;2904;48.788;9.196;2022-11-20T21:58:48;6.20;99.90
5759;DHT22;2904;48.788;9.196;2022-11-20T22:01:17;6.10;99.90
5759;DHT22;2904;48.788;9.196;2022-11-20T22:03:47;6.10;99.90
5759;DHT22;2904;48.788;9.196;2022-11-20T22:06:14;6.10;99.90
5759;DHT22;2904;48.788;9.196;2022-11-20T22:08:40;6.10;99.90
5759;DHT22;2904;48.788;9.196;2022-11-20T22:11:13;7.30;99.90
5759;DHT22;2904;48.788;9.196;2022-11-20T22:16:24;6.10;99.90
5759;DHT22;2904;48.788;9.196;2022-11-20T22:18:52;6.20;99.90
5759;DHT22;2904;48.788;9.196;2022-11-20T22:21:20;6.70;99.90
5759;DHT22;2904;48.788;9.196;2022-11-20T22:23:46;6.10;99.90
5759;DHT22;2904;48.788;9.196;2022-11-20T22:26:17;6.30;99.90
5759;DHT22;2904;48.788;9.196;2022-11-20T22:28:46;6.00;99.90
5759;DHT22;2904;48.788;9.196;2022-11-20T22:31:13;6.20;99.90
5759;DHT22;2904;48.788;9.196;2022-11-20T22:33:39;6.20;99.90
5759;DHT22;2904;48.788;9.196;2022-11-20T22:36:07;5.80;99.90
5759;DHT22;2904;48.788;9.196;2022-11-20T22:41:28;6.30;99.90
5759;DHT22;2904;48.788;9.196;2022-11-20T22:43:55;6.40;99.90
5759;DHT22;2904;48.788;9.196;2022-11-20T22:46:22;6.30;99.90
5759;DHT22;2904;48.788;9.196;2022-11-20T22:48:56;7.30;99.90
5759;DHT22;2904;48.788;9.196;2022-11-20T22:51:30;6.30;99.90
5759;DHT22;2904;48.788;9.196;2022-11-20T22:53:56;6.30;99.90